This demonstration page uses our WeatherBlox Daily Observations layout. Learn more.

Hourly Observations for October 8, 2020

Temp ( °F °C ) Dew Point ( °F °C ) Humidity (%) Winds ( mph kmh ) Pressure ( in mb ) Visibility ( mi km ) Precip ( " mm )
12:53 am 00:53 Clear 53 11.7 39 3.9 59 59 ESE 13 20 29.98 1015 10 16.0934 0 0
1:53 am 01:53 Clear 52 11.1 39 3.9 61 61 ESE 8 13 29.97 1015 10 16.0934 0 0
2:53 am 02:53 Clear 48 8.9 38 3.3 68 68 NE 3 6 29.99 1016 10 16.0934 0 0
3:53 am 03:53 Clear 47 8.3 38 3.3 71 71 E 7 11 29.98 1015 10 16.0934 0 0
4:53 am 04:53 Clear 45 7.2 37 2.8 74 74 Calm 29.97 1015 10 16.0934 0 0
5:53 am 05:53 Clear 42 5.6 36 2.2 79 79 E 3 6 29.98 1015 10 16.0934 0 0
6:53 am 06:53 Clear 40 4.4 35 1.7 83 83 Calm 30 1016 10 16.0934 0 0
7:53 am 07:53 Sunny 44 6.7 37 2.8 76 76 E 7 11 29.97 1015 10 16.0934 0 0
8:53 am 08:53 Sunny 49 9.4 39 3.9 69 69 SE 7 11 29.98 1015 10 16.0934 0 0
9:53 am 09:53 Sunny 55 12.8 41 5 59 59 SSE 5 7 29.96 1015 10 16.0934 0 0
10:53 am 10:53 Sunny 62 16.7 41 5 46 46 Calm 29.92 1013 10 16.0934 0 0
11:53 am 11:53 Sunny 68 20 41 5 38 38 Calm 29.88 1012 10 16.0934 0 0
12:53 pm 12:53 Sunny 74 23.3 38 3.3 27 27 VRB 3 6 29.84 1010 7 11.26538 0 0
1:53 pm 13:53 Hazy 80 26.7 33 0.6 18 18 SSE 3 6 29.79 1009 5 8.0467 0 0
2:53 pm 14:53 Hazy 83 28.3 30 -1.1 15 15 SE 5 7 29.76 1008 4 6.43736 0 0
3:53 pm 15:53 Hazy 84 28.9 30 -1.1 14 14 undefined N/A 29.75 1007 4 6.43736 0 0
4:53 pm 16:53 Hazy 82 27.8 36 2.2 19 19 SE 7 11 29.74 1007 6 9.65604 0 0
5:53 pm 17:53 Hazy 73 22.8 39 3.9 29 29 ESE 6 9 29.77 1008 6 9.65604 0 0
6:53 pm 18:53 Hazy 66 18.9 37 2.8 34 34 E 3 6 29.8 1009 6 9.65604 0 0
7:53 pm 19:53 Hazy 60 15.6 34 1.1 38 38 E 3 6 29.8 1009 6 9.65604 0 0
8:53 pm 20:53 Clear 59 15 33 0.6 38 38 E 5 7 29.8 1009 7 11.26538 0 0
9:53 pm 21:53 Clear 56 13.3 32 0 40 40 ESE 8 13 29.8 1009 7 11.26538 0 0
10:53 pm 22:53 Clear 55 12.8 32 0 42 42 NE 5 7 29.78 1009 8 12.87472 0 0
11:53 pm 23:53 Clear 50 10 33 0.6 52 52 NNE 3 6 29.78 1008 8 12.87472 0 0

Powered by AerisWeather